createdAt,value
2023-05-23T00:00:15.723Z,101639.28
2023-05-23T00:02:45.920Z,101634.72
2023-05-23T00:05:17.363Z,101636.53
2023-05-23T00:07:47.328Z,101633.84
2023-05-23T00:10:20.095Z,101631.72
2023-05-23T00:12:49.978Z,101650.19
2023-05-23T00:15:23.108Z,101651.06
2023-05-23T00:17:53.376Z,101650.94
2023-05-23T00:20:23.249Z,101645.44
2023-05-23T00:22:53.234Z,101654.97
2023-05-23T00:25:25.940Z,101660.34
2023-05-23T00:27:55.789Z,101650.66
2023-05-23T00:30:28.741Z,101655.94
2023-05-23T00:32:59.240Z,101652.19
2023-05-23T00:35:29.561Z,101655.84
2023-05-23T00:37:59.688Z,101657.63
2023-05-23T00:40:34.608Z,101662.72
2023-05-23T00:43:04.757Z,101662.78
2023-05-23T00:45:34.675Z,101669.91
2023-05-23T00:48:06.462Z,101666.38
2023-05-23T00:50:36.679Z,101682.94
2023-05-23T00:53:07.500Z,101687.41
2023-05-23T00:55:40.278Z,101684.75
2023-05-23T00:58:10.432Z,101675.81
2023-05-23T01:00:43.193Z,101694.09
2023-05-23T01:03:18.683Z,101692.22
2023-05-23T01:05:48.815Z,101697.44
2023-05-23T01:08:18.707Z,101699.84
2023-05-23T01:10:51.581Z,101704.09
2023-05-23T01:13:29.680Z,101696.06
2023-05-23T01:16:10.687Z,101696.88
2023-05-23T01:18:44.014Z,101701.06
2023-05-23T01:21:18.856Z,101707.06
2023-05-23T01:24:26.101Z,101701.41
2023-05-23T01:27:10.478Z,101710.25
2023-05-23T01:29:46.742Z,101711.94
2023-05-23T01:32:19.309Z,101720.47
2023-05-23T01:34:50.975Z,101723.75
2023-05-23T01:37:21.430Z,101718.03
2023-05-23T01:39:55.209Z,101725.13
2023-05-23T01:42:26.716Z,101718.16
2023-05-23T01:45:00.169Z,101734.63
2023-05-23T01:47:30.730Z,101719.63
2023-05-23T01:50:02.480Z,101731.78
2023-05-23T01:52:32.693Z,101720.50
2023-05-23T01:55:03.626Z,101734.00
2023-05-23T01:57:34.190Z,101739.41
2023-05-23T02:00:11.205Z,101756.03
2023-05-23T02:02:41.220Z,101758.78
2023-05-23T02:05:13.057Z,101750.72
2023-05-23T02:07:42.944Z,101753.41
2023-05-23T02:10:14.046Z,101760.09
2023-05-23T02:12:47.041Z,101773.38
2023-05-23T02:26:01.604Z,101788.66
2023-05-23T02:28:37.145Z,101776.41
2023-05-23T02:31:10.311Z,101779.28
2023-05-23T02:33:48.429Z,101782.97
2023-05-23T02:36:18.444Z,101780.44
2023-05-23T02:38:50.211Z,101778.75
2023-05-23T02:41:26.038Z,101783.16
2023-05-23T02:43:56.501Z,101794.53
2023-05-23T03:54:25.323Z,101845.31
2023-05-23T03:56:55.602Z,101855.22
2023-05-23T03:59:25.755Z,101849.44
2023-05-23T04:01:59.652Z,101843.97
2023-05-23T04:04:29.704Z,101847.69
2023-05-23T04:07:02.893Z,101852.97
2023-05-23T04:09:32.920Z,101854.44
2023-05-23T04:12:03.191Z,101871.28
2023-05-23T04:14:33.924Z,101868.34
2023-05-23T04:17:04.011Z,101861.31
2023-05-23T04:19:34.137Z,101853.47
2023-05-23T04:22:06.726Z,101860.69
2023-05-23T04:24:37.340Z,101870.31
2023-05-23T04:27:07.976Z,101878.44
2023-05-23T04:29:38.474Z,101886.03
2023-05-23T04:32:08.672Z,101883.94
2023-05-23T04:34:39.501Z,101896.19
2023-05-23T04:37:12.275Z,101891.59
2023-05-23T04:39:42.093Z,101898.69
2023-05-23T04:42:13.886Z,101904.03
2023-05-23T04:44:45.707Z,101913.59
2023-05-23T04:47:16.091Z,101912.31
2023-05-23T04:49:46.962Z,101910.25
2023-05-23T04:52:20.561Z,101927.59
2023-05-23T04:54:50.879Z,101919.59
2023-05-23T04:57:21.005Z,101932.47
2023-05-23T04:59:51.725Z,101930.69
2023-05-23T05:02:22.172Z,101935.00
2023-05-23T05:04:52.065Z,101958.69
2023-05-23T05:07:24.510Z,101937.63
2023-05-23T05:09:54.403Z,101953.41
2023-05-23T05:12:24.262Z,101958.56
2023-05-23T05:14:54.126Z,101967.25
2023-05-23T05:17:25.193Z,101955.63
2023-05-23T05:19:55.096Z,101959.25
2023-05-23T05:22:27.796Z,101967.38
2023-05-23T05:24:57.715Z,101959.31
2023-05-23T05:27:27.969Z,101975.28
2023-05-23T05:30:04.194Z,101958.44
2023-05-23T05:32:34.374Z,101971.81
2023-05-23T05:35:04.490Z,101973.63
2023-05-23T05:37:37.050Z,101985.66
2023-05-23T05:40:09.113Z,101995.22
2023-05-23T05:42:40.492Z,101987.25
2023-05-23T05:45:11.652Z,102007.47
2023-05-23T05:47:42.094Z,102005.00
2023-05-23T05:50:13.023Z,102008.03
2023-05-23T05:52:45.493Z,102015.84
2023-05-23T05:55:15.789Z,102019.41
2023-05-23T05:57:45.664Z,102033.75
2023-05-23T06:00:19.328Z,102031.72
2023-05-23T06:02:51.984Z,102037.91
2023-05-23T06:05:22.204Z,102022.56
2023-05-23T06:07:54.689Z,102016.72
2023-05-23T06:10:24.865Z,102020.03
2023-05-23T06:12:54.705Z,102031.91
2023-05-23T06:15:26.852Z,102037.28
2023-05-23T06:17:56.971Z,102048.66
2023-05-23T06:20:26.863Z,102036.78
2023-05-23T06:23:00.509Z,102034.91
2023-05-23T06:25:30.757Z,102029.28
2023-05-23T06:28:01.082Z,102037.31
2023-05-23T06:30:31.579Z,102038.75
2023-05-23T06:33:01.650Z,102047.84
2023-05-23T06:35:31.539Z,102055.88
2023-05-23T06:38:04.097Z,102042.47
2023-05-23T06:40:33.925Z,102052.03
2023-05-23T06:43:03.792Z,102053.50
2023-05-23T06:45:35.422Z,102061.53
2023-05-23T06:48:05.388Z,102065.84
2023-05-23T06:50:39.312Z,102068.47
2023-05-23T06:53:11.960Z,102057.09
2023-05-23T06:55:41.837Z,102070.69
2023-05-23T06:58:11.687Z,102066.88
2023-05-23T07:00:41.780Z,102082.06
2023-05-23T07:03:11.916Z,102091.31
2023-05-23T07:05:44.836Z,102091.19
2023-05-23T07:08:17.416Z,102091.25
2023-05-23T07:10:47.296Z,102094.41
2023-05-23T07:13:17.238Z,102094.53
2023-05-23T07:15:49.880Z,102101.28
2023-05-23T07:18:23.314Z,102103.00
2023-05-23T07:20:53.395Z,102100.09
2023-05-23T07:23:31.713Z,102107.63
2023-05-23T07:26:04.324Z,102100.75
2023-05-23T07:28:37.813Z,102110.59
2023-05-23T07:31:15.501Z,102107.09
2023-05-23T07:33:47.194Z,102109.56
2023-05-23T07:36:20.026Z,102114.38
2023-05-23T07:38:53.609Z,102112.63
2023-05-23T07:41:26.826Z,102113.72
2023-05-23T07:43:58.757Z,102124.66
2023-05-23T07:46:37.308Z,102125.53
2023-05-23T07:49:10.195Z,102127.63
2023-05-23T07:51:51.219Z,102122.66
2023-05-23T07:54:26.582Z,102125.53
2023-05-23T07:56:57.748Z,102121.22
2023-05-23T07:59:31.706Z,102123.16
2023-05-23T08:02:10.903Z,102122.13
2023-05-23T08:04:42.117Z,102126.13
2023-05-23T08:07:14.383Z,102125.19
2023-05-23T08:09:46.876Z,102127.78
2023-05-23T08:12:16.864Z,102134.75
2023-05-23T08:14:51.762Z,102135.91
2023-05-23T08:17:24.722Z,102140.91
2023-05-23T08:19:54.753Z,102145.97
2023-05-23T08:22:27.531Z,102143.38
2023-05-23T08:25:03.422Z,102155.09
2023-05-23T08:27:34.165Z,102148.41
2023-05-23T08:30:15.717Z,102154.16
2023-05-23T08:32:46.828Z,102154.75
2023-05-23T08:35:18.076Z,102159.53
2023-05-23T08:37:54.073Z,102161.53
2023-05-23T08:40:30.457Z,102162.25
2023-05-23T08:43:00.637Z,102172.31
2023-05-23T08:45:42.481Z,102162.16
2023-05-23T08:48:15.387Z,102168.44
2023-05-23T08:50:54.996Z,102162.50
2023-05-23T08:53:31.296Z,102165.72
2023-05-23T08:56:04.866Z,102164.03
2023-05-23T08:58:37.166Z,102180.16
2023-05-23T09:01:07.336Z,102170.72
2023-05-23T09:03:37.918Z,102168.16
2023-05-23T09:06:12.533Z,102169.91
2023-05-23T09:08:54.846Z,102183.16
2023-05-23T09:11:29.477Z,102172.31
2023-05-23T09:13:59.343Z,102188.25
2023-05-23T09:16:39.472Z,102185.53
2023-05-23T09:19:16.342Z,102191.63
2023-05-23T09:21:49.382Z,102182.88
2023-05-23T09:24:21.552Z,102194.38
2023-05-23T09:27:00.122Z,102185.09
2023-05-23T09:29:33.929Z,102209.03
2023-05-23T09:32:13.380Z,102208.81
2023-05-23T09:35:04.298Z,102205.75
2023-05-23T09:37:34.483Z,102206.28
2023-05-23T09:40:06.823Z,102207.84
2023-05-23T09:42:44.547Z,102208.25
2023-05-23T09:45:15.194Z,102213.25
2023-05-23T09:47:53.357Z,102204.44
2023-05-23T09:50:37.329Z,102206.13
2023-05-23T09:53:08.710Z,102212.47
2023-05-23T09:55:40.593Z,102207.06
2023-05-23T09:58:14.058Z,102214.50
2023-05-23T10:00:46.122Z,102204.00
2023-05-23T10:03:25.683Z,102211.44
2023-05-23T10:06:01.651Z,102207.28
2023-05-23T10:08:39.707Z,102209.75
2023-05-23T10:12:04.156Z,102213.88
2023-05-23T10:14:44.635Z,102212.72
2023-05-23T10:17:24.798Z,102218.84
2023-05-23T10:20:00.381Z,102208.94
2023-05-23T10:22:37.612Z,102219.34
2023-05-23T10:25:18.355Z,102219.03
2023-05-23T10:27:52.965Z,102221.59
2023-05-23T10:30:32.758Z,102221.69
2023-05-23T10:33:03.834Z,102223.56
2023-05-23T10:35:51.091Z,102219.09
2023-05-23T10:38:35.201Z,102233.19
2023-05-23T10:41:12.887Z,102220.66
2023-05-23T10:43:51.978Z,102232.72
2023-05-23T10:46:26.193Z,102225.38
2023-05-23T10:49:01.663Z,102228.13
2023-05-23T10:51:42.013Z,102232.28
2023-05-23T10:54:14.710Z,102243.44
2023-05-23T10:56:48.854Z,102242.34
2023-05-23T10:59:25.455Z,102238.84
2023-05-23T11:02:04.104Z,102241.06
2023-05-23T11:04:35.112Z,102237.00
2023-05-23T11:07:05.025Z,102239.50
2023-05-23T11:09:38.968Z,102241.50
2023-05-23T11:12:15.078Z,102243.19
2023-05-23T11:15:01.678Z,102243.19
2023-05-23T11:17:43.745Z,102255.16
2023-05-23T11:20:20.491Z,102264.38
2023-05-23T11:22:59.580Z,102252.41
2023-05-23T11:25:44.842Z,102249.09
2023-05-23T11:28:21.082Z,102252.72
2023-05-23T11:30:52.724Z,102244.41
2023-05-23T11:33:26.625Z,102249.72
2023-05-23T11:35:56.485Z,102260.41
2023-05-23T11:38:28.252Z,102262.09
2023-05-23T11:40:58.121Z,102255.91
2023-05-23T11:43:29.540Z,102258.94
2023-05-23T11:45:59.458Z,102262.94
2023-05-23T11:48:34.463Z,102270.19
2023-05-23T11:51:07.077Z,102273.53
2023-05-23T11:53:36.983Z,102263.22
2023-05-23T11:56:08.416Z,102273.94
2023-05-23T11:58:39.747Z,102271.41
2023-05-23T12:01:15.420Z,102271.63
2023-05-23T12:03:52.983Z,102277.09
2023-05-23T12:06:25.107Z,102274.59
2023-05-23T12:08:55.645Z,102271.72
2023-05-23T12:11:27.035Z,102275.28
2023-05-23T12:13:59.570Z,102272.97
2023-05-23T12:16:35.819Z,102291.13
2023-05-23T12:19:11.862Z,102281.75
2023-05-23T12:21:49.513Z,102275.16
2023-05-23T12:24:21.854Z,102292.66
2023-05-23T12:27:02.938Z,102288.84
2023-05-23T12:29:39.636Z,102287.06
2023-05-23T12:32:14.951Z,102287.66
2023-05-23T12:34:54.507Z,102283.94
2023-05-23T12:37:24.743Z,102289.09
2023-05-23T12:39:54.714Z,102287.25
2023-05-23T12:42:30.820Z,102277.06
2023-05-23T12:45:01.218Z,102293.97
2023-05-23T12:47:32.364Z,102290.97
2023-05-23T12:50:11.557Z,102287.50
2023-05-23T12:52:43.377Z,102289.06
2023-05-23T12:55:18.907Z,102287.94
2023-05-23T12:57:52.761Z,102290.88
2023-05-23T13:00:24.547Z,102288.63
2023-05-23T13:02:58.728Z,102295.28
2023-05-23T13:05:31.162Z,102290.78
2023-05-23T13:08:02.245Z,102302.81
2023-05-23T13:10:39.085Z,102297.88
2023-05-23T13:13:09.137Z,102302.47
2023-05-23T13:15:40.470Z,102304.19
2023-05-23T13:18:11.957Z,102292.63
2023-05-23T13:20:49.953Z,102309.34
2023-05-23T13:23:21.369Z,102305.44
2023-05-23T13:25:51.516Z,102301.09
2023-05-23T13:28:23.095Z,102291.56
2023-05-23T13:30:54.768Z,102305.63
2023-05-23T13:33:25.284Z,102295.94
2023-05-23T13:35:59.305Z,102298.88
2023-05-23T13:38:31.101Z,102306.97
2023-05-23T13:41:01.041Z,102318.19
2023-05-23T13:43:35.761Z,102299.56
2023-05-23T13:46:05.764Z,102298.44
2023-05-23T13:48:35.636Z,102316.75
2023-05-23T13:51:23.814Z,102311.34
2023-05-23T13:53:57.885Z,102311.97
2023-05-23T13:56:28.177Z,102312.03
2023-05-23T13:59:02.382Z,102318.94
2023-05-23T14:01:33.778Z,102315.41
2023-05-23T14:04:05.442Z,102319.19
2023-05-23T14:06:39.469Z,102321.34
2023-05-23T14:09:09.444Z,102329.84
2023-05-23T14:11:39.322Z,102322.38
2023-05-23T14:14:09.165Z,102324.84
2023-05-23T14:16:39.286Z,102321.84
2023-05-23T14:19:09.281Z,102323.03
2023-05-23T14:21:44.048Z,102323.13
2023-05-23T14:24:18.976Z,102327.72
2023-05-23T14:26:50.149Z,102324.31
2023-05-23T14:29:20.072Z,102321.38
2023-05-23T14:31:50.154Z,102327.38
2023-05-23T14:34:20.086Z,102322.34
2023-05-23T14:36:52.551Z,102321.44
2023-05-23T14:39:22.543Z,102318.34
2023-05-23T14:41:52.462Z,102320.88
2023-05-23T14:44:22.508Z,102309.41
2023-05-23T14:46:52.368Z,102327.16
2023-05-23T14:49:26.917Z,102327.50
2023-05-23T14:51:59.585Z,102325.59
2023-05-23T14:54:31.780Z,102320.03
2023-05-23T14:57:01.689Z,102326.00
2023-05-23T14:59:32.194Z,102320.50
2023-05-23T15:02:02.446Z,102323.75
2023-05-23T15:04:37.675Z,102327.41
2023-05-23T15:07:10.228Z,102315.97
2023-05-23T15:09:40.247Z,102325.91
2023-05-23T15:12:10.383Z,102329.56
2023-05-23T15:14:40.206Z,102327.84
2023-05-23T15:17:20.252Z,102331.72
2023-05-23T15:19:50.838Z,102331.09
2023-05-23T15:25:02.389Z,102336.81
2023-05-23T15:27:33.108Z,102344.25
2023-05-23T15:30:06.448Z,102335.72
2023-05-23T15:32:37.668Z,102336.41
2023-05-23T15:35:08.876Z,102343.78
2023-05-23T15:37:50.976Z,102342.56
2023-05-23T15:40:21.877Z,102347.59
2023-05-23T15:42:51.775Z,102342.66
2023-05-23T15:45:25.700Z,102342.06
2023-05-23T15:50:44.265Z,102343.63
2023-05-23T15:53:22.471Z,102338.56
2023-05-23T15:55:53.727Z,102334.91
2023-05-23T15:58:25.470Z,102347.16
2023-05-23T16:00:55.387Z,102331.16
2023-05-23T16:03:26.044Z,102338.81
2023-05-23T16:05:55.966Z,102329.22
2023-05-23T16:08:30.511Z,102328.22
2023-05-23T16:11:02.952Z,102331.66
2023-05-23T16:13:38.922Z,102342.28
2023-05-23T16:16:19.283Z,102335.59
2023-05-23T16:18:49.216Z,102331.38
2023-05-23T16:21:21.080Z,102334.84
2023-05-23T16:23:53.753Z,102344.66
2023-05-23T16:26:26.690Z,102345.13
2023-05-23T16:29:00.711Z,102349.03
2023-05-23T16:31:35.015Z,102339.81
2023-05-23T16:34:15.206Z,102359.03
2023-05-23T16:36:46.364Z,102341.09
2023-05-23T16:39:21.643Z,102337.84
2023-05-23T16:41:51.496Z,102339.47
2023-05-23T16:44:21.549Z,102339.53
2023-05-23T16:46:51.813Z,102334.94
2023-05-23T16:49:31.674Z,102342.63
2023-05-23T16:52:01.832Z,102333.38
2023-05-23T16:54:36.274Z,102336.09
2023-05-23T16:57:12.306Z,102341.56
2023-05-23T16:59:46.274Z,102340.59
2023-05-23T17:02:18.334Z,102343.13
2023-05-23T17:04:48.371Z,102342.22
2023-05-23T17:07:21.050Z,102347.59
2023-05-23T17:09:56.248Z,102350.38
2023-05-23T17:12:50.878Z,102337.94
2023-05-23T17:15:19.075Z,102334.41
2023-05-23T17:17:52.408Z,102339.97
2023-05-23T17:20:27.229Z,102331.19
2023-05-23T17:22:57.675Z,102330.50
2023-05-23T17:25:30.148Z,102335.91
2023-05-23T17:27:59.986Z,102341.22
2023-05-23T17:30:29.934Z,102330.50
2023-05-23T17:33:05.139Z,102341.56
2023-05-23T17:35:35.107Z,102332.41
2023-05-23T17:38:05.120Z,102340.28
2023-05-23T17:40:37.642Z,102341.69
2023-05-23T17:43:13.256Z,102336.28
2023-05-23T17:45:43.099Z,102336.06
2023-05-23T17:48:12.998Z,102341.25
2023-05-23T17:50:48.538Z,102343.75
2023-05-23T17:53:18.449Z,102343.66
2023-05-23T17:55:51.195Z,102346.09
2023-05-23T17:58:21.078Z,102348.38
2023-05-23T18:00:52.081Z,102350.94
2023-05-23T18:03:24.950Z,102361.53
2023-05-23T18:05:54.799Z,102354.44
2023-05-23T18:08:28.922Z,102355.22
2023-05-23T18:11:07.036Z,102361.47
2023-05-23T18:13:36.929Z,102352.66
2023-05-23T18:16:08.244Z,102357.84
2023-05-23T18:18:38.134Z,102368.75
2023-05-23T18:21:18.366Z,102362.31
2023-05-23T18:23:48.315Z,102373.00
2023-05-23T18:26:23.360Z,102370.06
2023-05-23T18:28:53.346Z,102369.13
2023-05-23T18:31:23.202Z,102359.44
2023-05-23T18:33:53.147Z,102361.47
2023-05-23T18:36:23.114Z,102354.16
2023-05-23T18:38:53.034Z,102352.28
2023-05-23T18:41:27.952Z,102355.56
2023-05-23T18:44:02.410Z,102354.47
2023-05-23T18:46:32.970Z,102351.16
2023-05-23T18:49:02.962Z,102339.44
2023-05-23T18:51:33.606Z,102346.69
2023-05-23T18:54:07.324Z,102349.50
2023-05-23T18:56:39.852Z,102351.16
2023-05-23T18:59:13.816Z,102353.94
2023-05-23T19:01:43.838Z,102367.25
2023-05-23T19:04:13.896Z,102368.81
2023-05-23T19:06:43.868Z,102358.09
2023-05-23T19:09:13.698Z,102360.34
2023-05-23T19:11:46.242Z,102366.41
2023-05-23T19:14:16.164Z,102382.34
2023-05-23T19:16:46.504Z,102389.28
2023-05-23T19:19:16.456Z,102392.44
2023-05-23T19:21:46.545Z,102395.84
2023-05-23T19:24:19.465Z,102402.56
2023-05-23T19:26:52.314Z,102406.84
2023-05-23T19:29:22.304Z,102410.47
2023-05-23T19:31:52.844Z,102413.22
2023-05-23T19:34:22.853Z,102407.97
2023-05-23T19:36:55.770Z,102394.63
2023-05-23T19:39:25.619Z,102412.22
2023-05-23T19:41:58.095Z,102411.25
2023-05-23T19:44:27.961Z,102410.06
2023-05-23T19:46:57.845Z,102405.34
2023-05-23T19:49:32.957Z,102411.34
2023-05-23T19:52:02.910Z,102402.44
2023-05-23T19:54:32.768Z,102402.28
2023-05-23T19:57:05.610Z,102412.59
2023-05-23T19:59:37.145Z,102407.38
2023-05-23T20:02:07.151Z,102398.50
2023-05-23T20:04:37.226Z,102397.53
2023-05-23T20:07:07.174Z,102390.41
2023-05-23T20:09:37.065Z,102395.63
2023-05-23T20:12:10.432Z,102397.19
2023-05-23T20:14:40.287Z,102395.31
2023-05-23T20:17:10.827Z,102402.31
2023-05-23T20:19:40.729Z,102396.91
2023-05-23T20:22:10.651Z,102399.31
2023-05-23T20:24:40.532Z,102402.03
2023-05-23T20:27:12.985Z,102388.34
2023-05-23T20:29:42.849Z,102395.38
2023-05-23T20:32:14.589Z,102405.19
2023-05-23T20:34:44.530Z,102392.75
2023-05-23T20:37:15.100Z,102397.91
2023-05-23T20:39:44.963Z,102395.78
2023-05-23T20:42:19.479Z,102400.16
2023-05-23T20:44:54.600Z,102397.47
2023-05-23T20:47:27.150Z,102392.72
2023-05-23T20:50:02.455Z,102391.81
2023-05-23T20:52:32.304Z,102389.91
2023-05-23T20:55:03.196Z,102385.53
2023-05-23T20:57:36.749Z,102389.91
2023-05-23T21:00:11.361Z,102390.81
2023-05-23T21:02:41.574Z,102391.72
2023-05-23T21:05:13.965Z,102389.81
2023-05-23T21:07:43.931Z,102380.03
2023-05-23T21:10:15.898Z,102382.50
2023-05-23T21:12:51.014Z,102386.13
2023-05-23T21:15:21.686Z,102382.66
2023-05-23T21:17:51.881Z,102387.28
2023-05-23T21:20:23.038Z,102380.16
2023-05-23T21:22:52.971Z,102387.09
2023-05-23T21:25:22.907Z,102380.78
2023-05-23T21:27:55.425Z,102387.78
2023-05-23T21:30:26.395Z,102389.59
2023-05-23T21:32:56.628Z,102379.03
2023-05-23T21:35:27.046Z,102385.94
2023-05-23T21:37:58.034Z,102389.44
2023-05-23T21:40:29.743Z,102392.06
2023-05-23T21:43:02.179Z,102386.78
2023-05-23T21:45:32.047Z,102383.25
2023-05-23T21:48:03.667Z,102373.69
2023-05-23T21:50:33.596Z,102374.25
2023-05-23T21:53:08.226Z,102381.38
2023-05-23T21:55:39.264Z,102377.09
2023-05-23T21:58:11.849Z,102377.09
2023-05-23T22:00:45.679Z,102370.81
2023-05-23T22:03:17.073Z,102369.72
2023-05-23T22:05:48.371Z,102373.44
2023-05-23T22:08:20.198Z,102374.59
2023-05-23T22:10:50.042Z,102361.41
2023-05-23T22:13:24.404Z,102364.09
2023-05-23T22:15:54.401Z,102371.28
2023-05-23T22:18:27.628Z,102379.13
2023-05-23T22:20:58.783Z,102376.53
2023-05-23T22:23:30.271Z,102373.75
2023-05-23T22:26:00.278Z,102373.84
2023-05-23T22:28:35.890Z,102372.19
2023-05-23T22:31:08.842Z,102378.44
2023-05-23T22:33:42.001Z,102372.03
2023-05-23T22:36:16.465Z,102367.44
2023-05-23T22:38:46.562Z,102369.97
2023-05-23T22:41:19.447Z,102368.94
2023-05-23T22:43:54.537Z,102358.38
2023-05-23T22:46:29.903Z,102371.56
2023-05-23T22:49:03.892Z,102362.06
2023-05-23T22:51:36.932Z,102365.34
2023-05-23T22:54:07.069Z,102364.97
2023-05-23T22:56:38.212Z,102371.06
2023-05-23T22:59:14.507Z,102370.31
2023-05-23T23:01:44.425Z,102369.47
2023-05-23T23:04:15.017Z,102372.88
2023-05-23T23:06:45.168Z,102370.19
2023-05-23T23:09:15.514Z,102370.31
2023-05-23T23:11:47.239Z,102363.47
2023-05-23T23:14:19.715Z,102369.66
2023-05-23T23:16:51.303Z,102366.19
2023-05-23T23:19:32.472Z,102355.75
2023-05-23T23:22:02.325Z,102348.13
2023-05-23T23:24:33.320Z,102354.31
2023-05-23T23:27:06.690Z,102353.50
2023-05-23T23:29:39.157Z,102354.31
2023-05-23T23:32:10.792Z,102354.00
2023-05-23T23:34:41.265Z,102354.00
2023-05-23T23:37:15.658Z,102351.38
2023-05-23T23:39:51.174Z,102359.53
2023-05-23T23:42:21.298Z,102360.50
2023-05-23T23:57:14.844Z,102333.19
2023-05-23T23:59:46.377Z,102337.66
